sensor_id;sensor_type;location;lat;lon;timestamp;P1;durP1;ratioP1;P2;durP2;ratioP2
12110;SDS011;6119;52.372;8.990;2023-04-25T00:00:30;15.20;;;3.93;;
12110;SDS011;6119;52.372;8.990;2023-04-25T00:03:16;11.43;;;4.10;;
12110;SDS011;6119;52.372;8.990;2023-04-25T00:06:04;15.10;;;4.13;;
12110;SDS011;6119;52.372;8.990;2023-04-25T00:08:51;11.33;;;3.70;;
12110;SDS011;6119;52.372;8.990;2023-04-25T00:11:38;9.77;;;3.70;;
12110;SDS011;6119;52.372;8.990;2023-04-25T00:14:24;8.77;;;4.27;;
12110;SDS011;6119;52.372;8.990;2023-04-25T00:17:13;11.30;;;3.97;;
12110;SDS011;6119;52.372;8.990;2023-04-25T00:20:01;10.77;;;3.53;;
12110;SDS011;6119;52.372;8.990;2023-04-25T00:22:49;10.00;;;4.20;;
12110;SDS011;6119;52.372;8.990;2023-04-25T00:25:37;9.60;;;3.60;;
12110;SDS011;6119;52.372;8.990;2023-04-25T00:28:23;7.67;;;4.03;;
12110;SDS011;6119;52.372;8.990;2023-04-25T00:31:10;11.93;;;4.13;;
12110;SDS011;6119;52.372;8.990;2023-04-25T00:33:58;11.73;;;4.10;;
12110;SDS011;6119;52.372;8.990;2023-04-25T00:36:45;9.90;;;3.93;;
12110;SDS011;6119;52.372;8.990;2023-04-25T00:39:31;8.27;;;4.23;;
12110;SDS011;6119;52.372;8.990;2023-04-25T00:42:18;9.07;;;3.90;;
12110;SDS011;6119;52.372;8.990;2023-04-25T00:45:05;8.73;;;3.63;;
12110;SDS011;6119;52.372;8.990;2023-04-25T00:47:53;10.67;;;4.23;;
12110;SDS011;6119;52.372;8.990;2023-04-25T00:50:43;7.00;;;4.07;;
12110;SDS011;6119;52.372;8.990;2023-04-25T00:53:37;9.23;;;4.33;;
12110;SDS011;6119;52.372;8.990;2023-04-25T00:56:23;12.80;;;4.40;;
12110;SDS011;6119;52.372;8.990;2023-04-25T00:59:10;11.90;;;4.17;;
12110;SDS011;6119;52.372;8.990;2023-04-25T01:01:58;7.87;;;4.33;;
12110;SDS011;6119;52.372;8.990;2023-04-25T01:04:45;9.00;;;3.80;;
12110;SDS011;6119;52.372;8.990;2023-04-25T01:07:33;9.73;;;4.10;;
12110;SDS011;6119;52.372;8.990;2023-04-25T01:10:20;9.07;;;4.90;;
12110;SDS011;6119;52.372;8.990;2023-04-25T01:13:07;10.70;;;4.17;;
12110;SDS011;6119;52.372;8.990;2023-04-25T01:15:54;9.90;;;4.50;;
12110;SDS011;6119;52.372;8.990;2023-04-25T01:18:40;9.93;;;4.13;;
12110;SDS011;6119;52.372;8.990;2023-04-25T01:21:29;8.63;;;4.43;;
12110;SDS011;6119;52.372;8.990;2023-04-25T01:24:17;9.47;;;3.80;;
12110;SDS011;6119;52.372;8.990;2023-04-25T01:27:04;8.90;;;4.50;;
12110;SDS011;6119;52.372;8.990;2023-04-25T01:29:50;8.03;;;4.40;;
12110;SDS011;6119;52.372;8.990;2023-04-25T01:32:37;10.17;;;4.27;;
12110;SDS011;6119;52.372;8.990;2023-04-25T01:35:24;9.87;;;3.80;;
12110;SDS011;6119;52.372;8.990;2023-04-25T01:38:13;13.00;;;3.77;;
12110;SDS011;6119;52.372;8.990;2023-04-25T01:41:00;11.90;;;3.33;;
12110;SDS011;6119;52.372;8.990;2023-04-25T01:43:47;9.80;;;3.70;;
12110;SDS011;6119;52.372;8.990;2023-04-25T01:46:34;9.33;;;3.10;;
12110;SDS011;6119;52.372;8.990;2023-04-25T01:49:21;12.20;;;3.10;;
12110;SDS011;6119;52.372;8.990;2023-04-25T01:52:08;12.43;;;3.63;;
12110;SDS011;6119;52.372;8.990;2023-04-25T01:54:57;6.00;;;2.57;;
12110;SDS011;6119;52.372;8.990;2023-04-25T01:57:45;13.97;;;3.00;;
12110;SDS011;6119;52.372;8.990;2023-04-25T02:00:31;11.73;;;3.10;;
12110;SDS011;6119;52.372;8.990;2023-04-25T02:03:18;9.60;;;2.90;;
12110;SDS011;6119;52.372;8.990;2023-04-25T02:06:05;16.20;;;3.50;;
12110;SDS011;6119;52.372;8.990;2023-04-25T02:08:52;6.80;;;2.43;;
12110;SDS011;6119;52.372;8.990;2023-04-25T02:11:39;7.90;;;3.00;;
12110;SDS011;6119;52.372;8.990;2023-04-25T02:14:26;11.00;;;2.83;;
12110;SDS011;6119;52.372;8.990;2023-04-25T02:17:13;9.43;;;3.17;;
12110;SDS011;6119;52.372;8.990;2023-04-25T02:20:00;6.63;;;2.50;;
12110;SDS011;6119;52.372;8.990;2023-04-25T02:22:47;9.13;;;3.10;;
12110;SDS011;6119;52.372;8.990;2023-04-25T02:25:34;14.53;;;3.10;;
12110;SDS011;6119;52.372;8.990;2023-04-25T02:28:22;9.30;;;3.30;;
12110;SDS011;6119;52.372;8.990;2023-04-25T02:31:09;7.83;;;2.90;;
12110;SDS011;6119;52.372;8.990;2023-04-25T02:33:56;12.13;;;3.10;;
12110;SDS011;6119;52.372;8.990;2023-04-25T02:36:42;11.90;;;3.53;;
12110;SDS011;6119;52.372;8.990;2023-04-25T02:39:29;18.83;;;3.80;;
12110;SDS011;6119;52.372;8.990;2023-04-25T02:42:15;10.53;;;3.57;;
12110;SDS011;6119;52.372;8.990;2023-04-25T02:45:04;16.10;;;2.77;;
12110;SDS011;6119;52.372;8.990;2023-04-25T02:47:51;10.63;;;2.87;;
12110;SDS011;6119;52.372;8.990;2023-04-25T02:50:37;13.00;;;3.23;;
12110;SDS011;6119;52.372;8.990;2023-04-25T02:53:24;10.63;;;3.40;;
12110;SDS011;6119;52.372;8.990;2023-04-25T02:56:10;14.27;;;3.70;;
12110;SDS011;6119;52.372;8.990;2023-04-25T02:58:57;12.07;;;3.53;;
12110;SDS011;6119;52.372;8.990;2023-04-25T03:01:45;14.53;;;3.80;;
12110;SDS011;6119;52.372;8.990;2023-04-25T03:04:31;16.50;;;3.07;;
12110;SDS011;6119;52.372;8.990;2023-04-25T03:07:19;11.23;;;3.33;;
12110;SDS011;6119;52.372;8.990;2023-04-25T03:10:05;17.80;;;3.50;;
12110;SDS011;6119;52.372;8.990;2023-04-25T03:12:53;10.53;;;3.70;;
12110;SDS011;6119;52.372;8.990;2023-04-25T03:15:39;14.90;;;3.97;;
12110;SDS011;6119;52.372;8.990;2023-04-25T03:18:27;14.97;;;4.00;;
12110;SDS011;6119;52.372;8.990;2023-04-25T03:21:14;14.40;;;3.53;;
12110;SDS011;6119;52.372;8.990;2023-04-25T03:24:00;16.80;;;3.50;;
12110;SDS011;6119;52.372;8.990;2023-04-25T03:26:48;14.93;;;3.47;;
12110;SDS011;6119;52.372;8.990;2023-04-25T03:29:34;13.87;;;3.77;;
12110;SDS011;6119;52.372;8.990;2023-04-25T03:32:21;16.73;;;2.97;;
12110;SDS011;6119;52.372;8.990;2023-04-25T03:35:09;18.87;;;4.00;;
12110;SDS011;6119;52.372;8.990;2023-04-25T03:37:55;21.43;;;3.87;;
12110;SDS011;6119;52.372;8.990;2023-04-25T03:40:41;9.33;;;2.77;;
12110;SDS011;6119;52.372;8.990;2023-04-25T03:43:28;22.93;;;4.40;;
12110;SDS011;6119;52.372;8.990;2023-04-25T03:46:15;15.80;;;3.53;;
12110;SDS011;6119;52.372;8.990;2023-04-25T03:49:02;11.47;;;3.07;;
12110;SDS011;6119;52.372;8.990;2023-04-25T03:51:49;11.20;;;3.20;;
12110;SDS011;6119;52.372;8.990;2023-04-25T03:54:36;18.60;;;3.50;;
12110;SDS011;6119;52.372;8.990;2023-04-25T03:57:22;7.47;;;2.60;;
12110;SDS011;6119;52.372;8.990;2023-04-25T04:00:09;11.40;;;3.27;;
12110;SDS011;6119;52.372;8.990;2023-04-25T04:02:57;14.00;;;3.80;;
12110;SDS011;6119;52.372;8.990;2023-04-25T04:05:44;13.93;;;2.97;;
12110;SDS011;6119;52.372;8.990;2023-04-25T04:08:32;14.03;;;3.50;;
12110;SDS011;6119;52.372;8.990;2023-04-25T04:11:19;11.13;;;3.23;;
12110;SDS011;6119;52.372;8.990;2023-04-25T04:14:06;17.13;;;3.57;;
12110;SDS011;6119;52.372;8.990;2023-04-25T04:16:53;17.23;;;2.97;;
12110;SDS011;6119;52.372;8.990;2023-04-25T04:19:39;9.47;;;3.33;;
12110;SDS011;6119;52.372;8.990;2023-04-25T04:22:25;17.63;;;3.60;;
12110;SDS011;6119;52.372;8.990;2023-04-25T04:25:13;10.60;;;3.40;;
12110;SDS011;6119;52.372;8.990;2023-04-25T04:28:00;17.80;;;3.67;;
12110;SDS011;6119;52.372;8.990;2023-04-25T04:30:46;17.67;;;4.50;;
12110;SDS011;6119;52.372;8.990;2023-04-25T04:33:32;8.27;;;2.93;;
12110;SDS011;6119;52.372;8.990;2023-04-25T04:36:19;12.43;;;2.90;;
12110;SDS011;6119;52.372;8.990;2023-04-25T04:39:06;11.00;;;3.07;;
12110;SDS011;6119;52.372;8.990;2023-04-25T04:41:55;16.37;;;3.43;;
12110;SDS011;6119;52.372;8.990;2023-04-25T04:44:41;15.53;;;3.37;;
12110;SDS011;6119;52.372;8.990;2023-04-25T04:47:29;15.87;;;3.97;;
12110;SDS011;6119;52.372;8.990;2023-04-25T04:50:17;12.53;;;2.90;;
12110;SDS011;6119;52.372;8.990;2023-04-25T04:53:04;7.67;;;2.50;;
12110;SDS011;6119;52.372;8.990;2023-04-25T04:55:51;10.00;;;3.70;;
12110;SDS011;6119;52.372;8.990;2023-04-25T04:58:38;15.13;;;3.37;;
12110;SDS011;6119;52.372;8.990;2023-04-25T05:01:25;14.77;;;3.10;;
12110;SDS011;6119;52.372;8.990;2023-04-25T05:04:12;11.90;;;2.57;;
12110;SDS011;6119;52.372;8.990;2023-04-25T05:06:59;12.63;;;2.93;;
12110;SDS011;6119;52.372;8.990;2023-04-25T05:09:45;17.60;;;3.50;;
12110;SDS011;6119;52.372;8.990;2023-04-25T05:12:31;19.27;;;3.63;;
12110;SDS011;6119;52.372;8.990;2023-04-25T05:15:22;13.90;;;3.77;;
12110;SDS011;6119;52.372;8.990;2023-04-25T05:18:08;10.40;;;2.97;;
12110;SDS011;6119;52.372;8.990;2023-04-25T05:20:55;7.63;;;4.40;;
12110;SDS011;6119;52.372;8.990;2023-04-25T05:23:42;10.47;;;3.30;;
12110;SDS011;6119;52.372;8.990;2023-04-25T05:26:28;8.73;;;2.93;;
12110;SDS011;6119;52.372;8.990;2023-04-25T05:29:16;13.87;;;3.03;;
12110;SDS011;6119;52.372;8.990;2023-04-25T05:32:04;13.50;;;3.03;;
12110;SDS011;6119;52.372;8.990;2023-04-25T05:34:52;8.70;;;2.67;;
12110;SDS011;6119;52.372;8.990;2023-04-25T05:37:39;21.67;;;4.13;;
12110;SDS011;6119;52.372;8.990;2023-04-25T05:40:25;14.23;;;3.60;;
12110;SDS011;6119;52.372;8.990;2023-04-25T05:43:12;14.50;;;2.90;;
12110;SDS011;6119;52.372;8.990;2023-04-25T05:45:58;11.90;;;2.70;;
12110;SDS011;6119;52.372;8.990;2023-04-25T05:48:47;16.67;;;3.20;;
12110;SDS011;6119;52.372;8.990;2023-04-25T05:51:33;11.73;;;2.97;;
12110;SDS011;6119;52.372;8.990;2023-04-25T05:54:20;12.37;;;2.90;;
12110;SDS011;6119;52.372;8.990;2023-04-25T05:57:06;9.60;;;3.20;;
12110;SDS011;6119;52.372;8.990;2023-04-25T05:59:53;11.10;;;3.00;;
12110;SDS011;6119;52.372;8.990;2023-04-25T06:02:40;11.53;;;3.73;;
12110;SDS011;6119;52.372;8.990;2023-04-25T06:05:28;11.77;;;3.30;;
12110;SDS011;6119;52.372;8.990;2023-04-25T06:08:15;15.57;;;3.43;;
12110;SDS011;6119;52.372;8.990;2023-04-25T06:11:02;11.23;;;2.53;;
12110;SDS011;6119;52.372;8.990;2023-04-25T06:13:49;8.07;;;2.87;;
12110;SDS011;6119;52.372;8.990;2023-04-25T06:16:36;15.43;;;3.13;;
12110;SDS011;6119;52.372;8.990;2023-04-25T06:19:23;10.27;;;2.53;;
12110;SDS011;6119;52.372;8.990;2023-04-25T06:22:11;11.37;;;3.00;;
12110;SDS011;6119;52.372;8.990;2023-04-25T06:24:57;8.60;;;3.03;;
12110;SDS011;6119;52.372;8.990;2023-04-25T06:27:45;6.17;;;3.30;;
12110;SDS011;6119;52.372;8.990;2023-04-25T06:30:32;9.70;;;3.60;;
12110;SDS011;6119;52.372;8.990;2023-04-25T06:33:19;11.90;;;3.50;;
12110;SDS011;6119;52.372;8.990;2023-04-25T06:36:06;7.07;;;2.97;;
12110;SDS011;6119;52.372;8.990;2023-04-25T06:38:54;12.90;;;2.73;;
12110;SDS011;6119;52.372;8.990;2023-04-25T06:41:41;10.50;;;2.80;;
12110;SDS011;6119;52.372;8.990;2023-04-25T06:44:27;10.57;;;3.10;;
12110;SDS011;6119;52.372;8.990;2023-04-25T06:47:14;7.90;;;2.47;;
12110;SDS011;6119;52.372;8.990;2023-04-25T06:50:01;8.50;;;2.20;;
12110;SDS011;6119;52.372;8.990;2023-04-25T06:52:48;5.77;;;2.27;;
12110;SDS011;6119;52.372;8.990;2023-04-25T06:55:36;7.90;;;2.43;;
12110;SDS011;6119;52.372;8.990;2023-04-25T06:58:22;9.27;;;2.50;;
12110;SDS011;6119;52.372;8.990;2023-04-25T07:01:08;7.33;;;2.63;;
12110;SDS011;6119;52.372;8.990;2023-04-25T07:03:55;8.13;;;2.17;;
12110;SDS011;6119;52.372;8.990;2023-04-25T07:06:43;8.77;;;2.43;;
12110;SDS011;6119;52.372;8.990;2023-04-25T07:09:30;8.87;;;2.60;;
12110;SDS011;6119;52.372;8.990;2023-04-25T07:12:20;6.67;;;2.27;;
12110;SDS011;6119;52.372;8.990;2023-04-25T07:15:06;7.83;;;2.37;;
12110;SDS011;6119;52.372;8.990;2023-04-25T07:17:55;3.90;;;1.90;;
12110;SDS011;6119;52.372;8.990;2023-04-25T07:20:41;9.73;;;2.97;;
12110;SDS011;6119;52.372;8.990;2023-04-25T07:23:27;8.47;;;2.27;;
12110;SDS011;6119;52.372;8.990;2023-04-25T07:26:14;10.03;;;2.50;;
12110;SDS011;6119;52.372;8.990;2023-04-25T07:29:02;11.10;;;3.03;;
12110;SDS011;6119;52.372;8.990;2023-04-25T07:31:49;6.87;;;2.43;;
12110;SDS011;6119;52.372;8.990;2023-04-25T07:34:36;14.10;;;2.57;;
12110;SDS011;6119;52.372;8.990;2023-04-25T07:37:23;8.17;;;3.10;;
12110;SDS011;6119;52.372;8.990;2023-04-25T07:40:11;12.10;;;2.77;;
12110;SDS011;6119;52.372;8.990;2023-04-25T07:42:57;10.53;;;2.33;;
12110;SDS011;6119;52.372;8.990;2023-04-25T07:45:45;4.87;;;2.20;;
12110;SDS011;6119;52.372;8.990;2023-04-25T07:48:32;5.33;;;2.10;;
12110;SDS011;6119;52.372;8.990;2023-04-25T07:51:19;9.57;;;2.57;;
12110;SDS011;6119;52.372;8.990;2023-04-25T07:54:06;10.13;;;1.90;;
12110;SDS011;6119;52.372;8.990;2023-04-25T07:56:53;8.30;;;1.97;;
12110;SDS011;6119;52.372;8.990;2023-04-25T07:59:39;9.10;;;2.10;;
12110;SDS011;6119;52.372;8.990;2023-04-25T08:02:27;8.87;;;2.33;;
12110;SDS011;6119;52.372;8.990;2023-04-25T08:05:14;10.37;;;2.60;;
12110;SDS011;6119;52.372;8.990;2023-04-25T08:08:06;6.37;;;2.20;;
12110;SDS011;6119;52.372;8.990;2023-04-25T08:10:52;10.30;;;2.20;;
12110;SDS011;6119;52.372;8.990;2023-04-25T08:13:39;8.93;;;2.60;;
12110;SDS011;6119;52.372;8.990;2023-04-25T08:16:25;9.97;;;2.00;;
12110;SDS011;6119;52.372;8.990;2023-04-25T08:19:13;14.83;;;2.23;;
12110;SDS011;6119;52.372;8.990;2023-04-25T08:22:00;8.37;;;1.93;;
12110;SDS011;6119;52.372;8.990;2023-04-25T08:24:46;12.93;;;2.40;;
12110;SDS011;6119;52.372;8.990;2023-04-25T08:27:33;8.93;;;2.20;;
12110;SDS011;6119;52.372;8.990;2023-04-25T08:30:20;15.37;;;2.13;;
12110;SDS011;6119;52.372;8.990;2023-04-25T08:33:07;5.30;;;1.60;;
12110;SDS011;6119;52.372;8.990;2023-04-25T08:35:55;5.80;;;1.63;;
12110;SDS011;6119;52.372;8.990;2023-04-25T08:38:42;9.03;;;2.30;;
12110;SDS011;6119;52.372;8.990;2023-04-25T08:41:29;8.30;;;2.57;;
12110;SDS011;6119;52.372;8.990;2023-04-25T08:44:16;5.30;;;2.10;;
12110;SDS011;6119;52.372;8.990;2023-04-25T08:47:03;13.53;;;2.10;;
12110;SDS011;6119;52.372;8.990;2023-04-25T08:49:50;6.60;;;1.80;;
12110;SDS011;6119;52.372;8.990;2023-04-25T08:52:44;12.13;;;1.77;;
12110;SDS011;6119;52.372;8.990;2023-04-25T08:55:31;4.53;;;1.83;;
12110;SDS011;6119;52.372;8.990;2023-04-25T08:58:18;4.07;;;1.77;;
12110;SDS011;6119;52.372;8.990;2023-04-25T09:01:05;4.47;;;1.67;;
12110;SDS011;6119;52.372;8.990;2023-04-25T09:03:52;5.80;;;1.63;;
12110;SDS011;6119;52.372;8.990;2023-04-25T09:06:43;6.10;;;1.60;;
12110;SDS011;6119;52.372;8.990;2023-04-25T09:09:31;8.10;;;1.77;;
12110;SDS011;6119;52.372;8.990;2023-04-25T09:12:18;6.80;;;2.17;;
12110;SDS011;6119;52.372;8.990;2023-04-25T09:15:06;3.37;;;1.60;;
12110;SDS011;6119;52.372;8.990;2023-04-25T09:17:55;4.40;;;1.70;;
12110;SDS011;6119;52.372;8.990;2023-04-25T09:20:42;5.33;;;1.63;;
12110;SDS011;6119;52.372;8.990;2023-04-25T09:23:38;2.77;;;1.63;;
12110;SDS011;6119;52.372;8.990;2023-04-25T09:26:27;9.57;;;2.20;;
12110;SDS011;6119;52.372;8.990;2023-04-25T09:29:13;3.57;;;1.43;;
12110;SDS011;6119;52.372;8.990;2023-04-25T09:32:14;8.07;;;1.60;;
12110;SDS011;6119;52.372;8.990;2023-04-25T09:35:02;5.27;;;1.33;;
12110;SDS011;6119;52.372;8.990;2023-04-25T09:37:49;5.73;;;1.30;;
12110;SDS011;6119;52.372;8.990;2023-04-25T09:40:39;5.43;;;2.00;;
12110;SDS011;6119;52.372;8.990;2023-04-25T09:43:30;10.47;;;1.30;;
12110;SDS011;6119;52.372;8.990;2023-04-25T09:46:17;4.50;;;1.57;;
12110;SDS011;6119;52.372;8.990;2023-04-25T09:49:06;3.57;;;1.57;;
12110;SDS011;6119;52.372;8.990;2023-04-25T09:51:54;5.07;;;1.67;;
12110;SDS011;6119;52.372;8.990;2023-04-25T09:54:41;2.53;;;1.57;;
12110;SDS011;6119;52.372;8.990;2023-04-25T09:57:27;6.33;;;1.63;;
12110;SDS011;6119;52.372;8.990;2023-04-25T10:00:16;6.47;;;1.50;;
12110;SDS011;6119;52.372;8.990;2023-04-25T10:03:06;8.37;;;2.23;;
12110;SDS011;6119;52.372;8.990;2023-04-25T10:05:53;5.97;;;1.70;;
12110;SDS011;6119;52.372;8.990;2023-04-25T10:08:41;5.97;;;1.53;;
12110;SDS011;6119;52.372;8.990;2023-04-25T10:11:29;5.27;;;1.40;;
12110;SDS011;6119;52.372;8.990;2023-04-25T10:14:18;3.47;;;0.90;;
12110;SDS011;6119;52.372;8.990;2023-04-25T10:17:06;3.93;;;1.10;;
12110;SDS011;6119;52.372;8.990;2023-04-25T10:19:56;5.90;;;1.40;;
12110;SDS011;6119;52.372;8.990;2023-04-25T10:22:45;4.77;;;1.50;;
12110;SDS011;6119;52.372;8.990;2023-04-25T10:25:33;8.50;;;1.50;;
12110;SDS011;6119;52.372;8.990;2023-04-25T10:28:21;6.47;;;1.60;;
12110;SDS011;6119;52.372;8.990;2023-04-25T10:31:07;4.13;;;1.37;;
12110;SDS011;6119;52.372;8.990;2023-04-25T10:33:55;3.87;;;1.40;;
12110;SDS011;6119;52.372;8.990;2023-04-25T10:36:42;4.00;;;1.60;;
12110;SDS011;6119;52.372;8.990;2023-04-25T10:39:34;4.67;;;1.60;;
12110;SDS011;6119;52.372;8.990;2023-04-25T10:42:21;8.17;;;1.80;;
12110;SDS011;6119;52.372;8.990;2023-04-25T10:45:08;5.53;;;1.57;;
12110;SDS011;6119;52.372;8.990;2023-04-25T10:47:55;8.70;;;1.63;;
12110;SDS011;6119;52.372;8.990;2023-04-25T10:50:43;3.57;;;1.50;;
12110;SDS011;6119;52.372;8.990;2023-04-25T10:53:30;3.53;;;1.30;;
12110;SDS011;6119;52.372;8.990;2023-04-25T10:56:19;2.27;;;1.17;;
12110;SDS011;6119;52.372;8.990;2023-04-25T10:59:07;3.30;;;1.07;;
12110;SDS011;6119;52.372;8.990;2023-04-25T11:01:55;3.80;;;0.97;;
12110;SDS011;6119;52.372;8.990;2023-04-25T11:04:42;3.40;;;1.37;;
12110;SDS011;6119;52.372;8.990;2023-04-25T11:07:33;5.53;;;1.40;;
12110;SDS011;6119;52.372;8.990;2023-04-25T11:10:25;7.30;;;1.60;;
12110;SDS011;6119;52.372;8.990;2023-04-25T11:13:12;5.13;;;1.20;;
12110;SDS011;6119;52.372;8.990;2023-04-25T11:15:59;4.73;;;1.60;;
12110;SDS011;6119;52.372;8.990;2023-04-25T11:18:57;4.83;;;1.10;;
12110;SDS011;6119;52.372;8.990;2023-04-25T11:21:44;5.43;;;1.60;;
12110;SDS011;6119;52.372;8.990;2023-04-25T11:24:33;5.53;;;0.93;;
12110;SDS011;6119;52.372;8.990;2023-04-25T11:27:21;5.30;;;0.97;;
12110;SDS011;6119;52.372;8.990;2023-04-25T11:30:10;2.80;;;1.07;;
12110;SDS011;6119;52.372;8.990;2023-04-25T11:32:58;1.70;;;0.87;;
12110;SDS011;6119;52.372;8.990;2023-04-25T11:35:45;2.80;;;1.00;;
12110;SDS011;6119;52.372;8.990;2023-04-25T11:38:31;3.13;;;1.30;;
12110;SDS011;6119;52.372;8.990;2023-04-25T11:41:20;2.37;;;0.97;;
12110;SDS011;6119;52.372;8.990;2023-04-25T11:44:07;4.23;;;1.13;;
12110;SDS011;6119;52.372;8.990;2023-04-25T11:46:55;3.03;;;1.30;;
12110;SDS011;6119;52.372;8.990;2023-04-25T11:49:42;4.57;;;1.40;;
12110;SDS011;6119;52.372;8.990;2023-04-25T11:52:36;4.30;;;1.33;;
12110;SDS011;6119;52.372;8.990;2023-04-25T11:55:24;2.13;;;1.03;;
12110;SDS011;6119;52.372;8.990;2023-04-25T11:58:12;3.07;;;1.10;;
12110;SDS011;6119;52.372;8.990;2023-04-25T12:01:00;3.03;;;1.30;;
12110;SDS011;6119;52.372;8.990;2023-04-25T12:03:47;5.60;;;1.53;;
12110;SDS011;6119;52.372;8.990;2023-04-25T12:06:36;2.43;;;0.90;;
12110;SDS011;6119;52.372;8.990;2023-04-25T12:09:27;2.03;;;1.10;;
12110;SDS011;6119;52.372;8.990;2023-04-25T12:12:15;2.23;;;1.20;;
12110;SDS011;6119;52.372;8.990;2023-04-25T12:15:10;3.83;;;1.30;;
12110;SDS011;6119;52.372;8.990;2023-04-25T12:18:00;1.57;;;1.00;;
12110;SDS011;6119;52.372;8.990;2023-04-25T12:20:48;2.40;;;0.87;;
12110;SDS011;6119;52.372;8.990;2023-04-25T12:23:35;2.63;;;1.17;;
12110;SDS011;6119;52.372;8.990;2023-04-25T12:26:26;2.13;;;1.03;;
12110;SDS011;6119;52.372;8.990;2023-04-25T12:29:32;3.20;;;1.03;;
12110;SDS011;6119;52.372;8.990;2023-04-25T12:32:35;3.80;;;1.13;;
12110;SDS011;6119;52.372;8.990;2023-04-25T12:35:23;4.93;;;1.43;;
12110;SDS011;6119;52.372;8.990;2023-04-25T12:38:09;4.20;;;1.27;;
12110;SDS011;6119;52.372;8.990;2023-04-25T12:40:56;2.73;;;1.00;;
12110;SDS011;6119;52.372;8.990;2023-04-25T12:43:43;6.13;;;1.40;;
12110;SDS011;6119;52.372;8.990;2023-04-25T12:46:30;3.13;;;1.30;;
12110;SDS011;6119;52.372;8.990;2023-04-25T12:49:18;1.40;;;1.10;;
12110;SDS011;6119;52.372;8.990;2023-04-25T12:52:05;3.07;;;1.23;;
12110;SDS011;6119;52.372;8.990;2023-04-25T12:54:51;5.47;;;1.53;;
12110;SDS011;6119;52.372;8.990;2023-04-25T12:57:38;2.50;;;1.00;;
12110;SDS011;6119;52.372;8.990;2023-04-25T13:00:24;1.37;;;1.00;;
12110;SDS011;6119;52.372;8.990;2023-04-25T13:03:12;3.77;;;0.90;;
12110;SDS011;6119;52.372;8.990;2023-04-25T13:06:00;4.73;;;1.40;;
12110;SDS011;6119;52.372;8.990;2023-04-25T13:08:47;6.80;;;1.40;;
12110;SDS011;6119;52.372;8.990;2023-04-25T13:11:34;3.50;;;1.37;;
12110;SDS011;6119;52.372;8.990;2023-04-25T13:14:21;1.10;;;0.93;;
12110;SDS011;6119;52.372;8.990;2023-04-25T13:17:07;3.83;;;1.30;;
12110;SDS011;6119;52.372;8.990;2023-04-25T13:19:54;2.67;;;1.20;;
12110;SDS011;6119;52.372;8.990;2023-04-25T13:22:42;3.23;;;1.30;;
12110;SDS011;6119;52.372;8.990;2023-04-25T13:25:30;2.13;;;1.10;;
12110;SDS011;6119;52.372;8.990;2023-04-25T13:28:17;2.90;;;1.20;;
12110;SDS011;6119;52.372;8.990;2023-04-25T13:31:03;2.73;;;1.00;;
12110;SDS011;6119;52.372;8.990;2023-04-25T13:33:50;6.03;;;1.27;;
12110;SDS011;6119;52.372;8.990;2023-04-25T13:36:37;1.97;;;1.00;;
12110;SDS011;6119;52.372;8.990;2023-04-25T13:39:25;3.67;;;1.63;;
12110;SDS011;6119;52.372;8.990;2023-04-25T13:42:12;1.93;;;1.17;;
12110;SDS011;6119;52.372;8.990;2023-04-25T13:44:59;4.40;;;1.13;;
12110;SDS011;6119;52.372;8.990;2023-04-25T13:47:45;4.03;;;1.30;;
12110;SDS011;6119;52.372;8.990;2023-04-25T13:50:32;2.23;;;1.00;;
12110;SDS011;6119;52.372;8.990;2023-04-25T13:53:19;3.03;;;1.23;;
12110;SDS011;6119;52.372;8.990;2023-04-25T13:56:08;2.57;;;1.20;;
12110;SDS011;6119;52.372;8.990;2023-04-25T13:58:55;4.13;;;1.10;;
12110;SDS011;6119;52.372;8.990;2023-04-25T14:01:42;2.27;;;0.90;;
12110;SDS011;6119;52.372;8.990;2023-04-25T14:04:29;2.30;;;0.90;;
12110;SDS011;6119;52.372;8.990;2023-04-25T14:07:17;1.50;;;0.93;;
12110;SDS011;6119;52.372;8.990;2023-04-25T14:10:05;2.00;;;1.03;;
12110;SDS011;6119;52.372;8.990;2023-04-25T14:12:54;2.53;;;0.90;;
12110;SDS011;6119;52.372;8.990;2023-04-25T14:15:40;1.17;;;0.87;;
12110;SDS011;6119;52.372;8.990;2023-04-25T14:18:27;3.73;;;0.97;;
12110;SDS011;6119;52.372;8.990;2023-04-25T14:21:14;2.63;;;0.90;;
12110;SDS011;6119;52.372;8.990;2023-04-25T14:24:01;4.03;;;1.30;;
12110;SDS011;6119;52.372;8.990;2023-04-25T14:26:47;3.80;;;0.87;;
12110;SDS011;6119;52.372;8.990;2023-04-25T14:29:35;1.93;;;1.00;;
12110;SDS011;6119;52.372;8.990;2023-04-25T14:32:22;1.90;;;1.13;;
12110;SDS011;6119;52.372;8.990;2023-04-25T14:35:08;4.73;;;1.20;;
12110;SDS011;6119;52.372;8.990;2023-04-25T14:37:55;1.70;;;1.00;;
12110;SDS011;6119;52.372;8.990;2023-04-25T14:40:41;2.33;;;1.00;;
12110;SDS011;6119;52.372;8.990;2023-04-25T14:43:27;1.13;;;1.00;;
12110;SDS011;6119;52.372;8.990;2023-04-25T14:46:15;2.67;;;1.07;;
12110;SDS011;6119;52.372;8.990;2023-04-25T14:49:02;2.50;;;1.10;;
12110;SDS011;6119;52.372;8.990;2023-04-25T14:51:49;2.37;;;0.90;;
12110;SDS011;6119;52.372;8.990;2023-04-25T14:54:36;4.80;;;1.57;;
12110;SDS011;6119;52.372;8.990;2023-04-25T14:57:22;1.33;;;0.93;;
12110;SDS011;6119;52.372;8.990;2023-04-25T15:00:09;2.07;;;1.23;;
12110;SDS011;6119;52.372;8.990;2023-04-25T15:03:02;1.70;;;1.07;;
12110;SDS011;6119;52.372;8.990;2023-04-25T15:05:50;1.10;;;0.90;;
12110;SDS011;6119;52.372;8.990;2023-04-25T15:08:37;2.37;;;1.20;;
12110;SDS011;6119;52.372;8.990;2023-04-25T15:11:24;4.20;;;1.20;;
12110;SDS011;6119;52.372;8.990;2023-04-25T15:14:11;2.67;;;1.00;;
12110;SDS011;6119;52.372;8.990;2023-04-25T15:16:57;2.83;;;1.40;;
12110;SDS011;6119;52.372;8.990;2023-04-25T15:19:45;4.63;;;1.40;;
12110;SDS011;6119;52.372;8.990;2023-04-25T15:22:32;3.07;;;1.27;;
12110;SDS011;6119;52.372;8.990;2023-04-25T15:25:19;2.53;;;1.13;;
12110;SDS011;6119;52.372;8.990;2023-04-25T15:28:05;4.80;;;1.53;;
12110;SDS011;6119;52.372;8.990;2023-04-25T15:30:52;4.93;;;1.60;;
12110;SDS011;6119;52.372;8.990;2023-04-25T15:33:39;4.73;;;1.10;;
12110;SDS011;6119;52.372;8.990;2023-04-25T15:36:27;3.27;;;1.10;;
12110;SDS011;6119;52.372;8.990;2023-04-25T15:39:14;3.03;;;1.27;;
12110;SDS011;6119;52.372;8.990;2023-04-25T15:42:01;2.20;;;1.20;;
12110;SDS011;6119;52.372;8.990;2023-04-25T15:44:48;2.20;;;0.90;;
12110;SDS011;6119;52.372;8.990;2023-04-25T15:47:35;6.07;;;1.37;;
12110;SDS011;6119;52.372;8.990;2023-04-25T15:50:23;2.67;;;1.50;;
12110;SDS011;6119;52.372;8.990;2023-04-25T15:53:12;4.63;;;1.47;;
12110;SDS011;6119;52.372;8.990;2023-04-25T15:55:58;2.87;;;1.30;;
12110;SDS011;6119;52.372;8.990;2023-04-25T15:58:45;3.37;;;1.70;;
12110;SDS011;6119;52.372;8.990;2023-04-25T16:01:32;3.10;;;1.30;;
12110;SDS011;6119;52.372;8.990;2023-04-25T16:04:18;7.57;;;1.60;;
12110;SDS011;6119;52.372;8.990;2023-04-25T16:07:05;3.03;;;1.20;;
12110;SDS011;6119;52.372;8.990;2023-04-25T16:09:54;3.27;;;1.63;;
12110;SDS011;6119;52.372;8.990;2023-04-25T16:12:41;2.10;;;1.20;;
12110;SDS011;6119;52.372;8.990;2023-04-25T16:15:28;1.83;;;1.03;;
12110;SDS011;6119;52.372;8.990;2023-04-25T16:18:19;3.20;;;1.30;;
12110;SDS011;6119;52.372;8.990;2023-04-25T16:21:05;4.20;;;1.93;;
12110;SDS011;6119;52.372;8.990;2023-04-25T16:23:52;2.73;;;1.13;;
12110;SDS011;6119;52.372;8.990;2023-04-25T16:26:41;6.83;;;1.77;;
12110;SDS011;6119;52.372;8.990;2023-04-25T16:29:29;5.77;;;1.83;;
12110;SDS011;6119;52.372;8.990;2023-04-25T16:32:15;4.87;;;1.60;;
12110;SDS011;6119;52.372;8.990;2023-04-25T16:35:02;5.33;;;1.37;;
12110;SDS011;6119;52.372;8.990;2023-04-25T16:37:49;3.13;;;1.40;;
12110;SDS011;6119;52.372;8.990;2023-04-25T16:40:36;2.20;;;1.30;;
12110;SDS011;6119;52.372;8.990;2023-04-25T16:43:24;4.47;;;1.70;;
12110;SDS011;6119;52.372;8.990;2023-04-25T16:46:10;3.03;;;1.13;;
12110;SDS011;6119;52.372;8.990;2023-04-25T16:48:57;3.73;;;1.23;;
12110;SDS011;6119;52.372;8.990;2023-04-25T16:51:44;1.43;;;1.10;;
12110;SDS011;6119;52.372;8.990;2023-04-25T16:54:32;2.70;;;1.27;;
12110;SDS011;6119;52.372;8.990;2023-04-25T16:57:18;2.40;;;0.93;;
12110;SDS011;6119;52.372;8.990;2023-04-25T17:00:07;2.03;;;1.33;;